createdAt,value
2023-01-29T00:01:58.684Z,3.78
2023-01-29T00:04:25.413Z,4.80
2023-01-29T00:06:51.784Z,4.07
2023-01-29T00:09:18.794Z,2.63
2023-01-29T00:11:45.259Z,3.60
2023-01-29T00:14:11.939Z,4.57
2023-01-29T00:16:38.501Z,5.18
2023-01-29T00:19:05.115Z,3.50
2023-01-29T00:21:32.258Z,3.10
2023-01-29T00:23:59.810Z,3.35
2023-01-29T00:26:27.054Z,4.60
2023-01-29T00:28:53.561Z,6.13
2023-01-29T00:31:22.724Z,5.13
2023-01-29T00:33:49.807Z,4.70
2023-01-29T00:36:18.259Z,4.63
2023-01-29T00:38:46.445Z,3.58
2023-01-29T00:41:34.097Z,3.03
2023-01-29T00:44:20.110Z,3.50
2023-01-29T00:46:46.617Z,4.38
2023-01-29T00:49:13.107Z,2.70
2023-01-29T00:51:39.756Z,5.65
2023-01-29T00:54:06.931Z,4.53
2023-01-29T00:56:36.382Z,3.85
2023-01-29T00:59:03.749Z,4.03
2023-01-29T01:01:48.828Z,3.63
2023-01-29T01:04:15.264Z,4.35
2023-01-29T01:06:42.666Z,6.72
2023-01-29T01:09:29.603Z,5.15
2023-01-29T01:11:56.105Z,4.28
2023-01-29T01:14:22.909Z,4.78
2023-01-29T01:16:49.624Z,3.63
2023-01-29T01:19:16.356Z,5.63
2023-01-29T01:21:48.180Z,3.85
2023-01-29T01:24:15.191Z,3.17
2023-01-29T01:26:41.838Z,6.13
2023-01-29T01:29:09.110Z,4.95
2023-01-29T01:31:35.767Z,4.45
2023-01-29T01:34:02.231Z,5.43
2023-01-29T01:36:28.620Z,4.07
2023-01-29T01:38:55.049Z,3.53
2023-01-29T01:41:22.894Z,3.42
2023-01-29T01:43:57.758Z,3.60
2023-01-29T01:46:25.682Z,4.68
2023-01-29T01:48:58.630Z,6.13
2023-01-29T01:51:27.662Z,4.80
2023-01-29T01:54:31.583Z,4.30
2023-01-29T01:57:15.788Z,4.85
2023-01-29T01:59:54.360Z,5.60
2023-01-29T02:02:40.167Z,7.03
2023-01-29T02:05:26.230Z,6.43
2023-01-29T02:08:11.176Z,7.18
2023-01-29T02:13:16.316Z,4.90
2023-01-29T02:15:46.819Z,4.15
2023-01-29T02:18:14.620Z,4.13
2023-01-29T02:20:48.567Z,8.50
2023-01-29T02:23:27.069Z,5.28
2023-01-29T02:26:20.587Z,8.85
2023-01-29T02:29:22.186Z,6.35
2023-01-29T02:32:00.256Z,6.93
2023-01-29T02:35:27.725Z,6.10
2023-01-29T02:38:21.726Z,6.60
2023-01-29T02:41:15.174Z,6.38
2023-01-29T02:44:08.447Z,5.93
2023-01-29T02:46:37.536Z,5.35
2023-01-29T02:49:33.657Z,6.45
2023-01-29T02:52:21.134Z,5.30
2023-01-29T02:55:02.796Z,5.30
2023-01-29T02:57:34.609Z,6.70
2023-01-29T03:00:18.848Z,6.35
2023-01-29T03:02:56.339Z,5.22
2023-01-29T03:05:35.175Z,6.75
2023-01-29T03:08:09.091Z,7.72
2023-01-29T03:10:40.870Z,8.52
2023-01-29T03:13:14.569Z,8.77
2023-01-29T03:15:46.969Z,6.53
2023-01-29T03:18:26.078Z,6.28
2023-01-29T03:20:58.539Z,8.45
2023-01-29T03:23:50.197Z,10.32
2023-01-29T03:26:39.364Z,9.15
2023-01-29T03:29:26.293Z,7.28
2023-01-29T03:32:07.755Z,4.07
2023-01-29T03:34:51.692Z,8.05
2023-01-29T03:37:29.982Z,5.13
2023-01-29T03:39:56.547Z,4.78
2023-01-29T03:43:20.226Z,6.72
2023-01-29T03:46:02.075Z,5.93
2023-01-29T03:48:32.713Z,6.00
2023-01-29T03:51:10.338Z,5.72
2023-01-29T03:53:39.644Z,8.40
2023-01-29T03:56:16.052Z,8.15
2023-01-29T03:59:17.464Z,9.20
2023-01-29T04:01:55.087Z,5.88
2023-01-29T04:04:26.909Z,5.80
2023-01-29T04:06:58.331Z,7.50
2023-01-29T04:09:48.651Z,6.72
2023-01-29T04:12:20.064Z,6.93
2023-01-29T04:14:48.598Z,6.20
2023-01-29T04:17:21.881Z,6.72
2023-01-29T04:19:48.444Z,6.00
2023-01-29T04:22:23.862Z,6.72
2023-01-29T04:24:51.236Z,6.63
2023-01-29T04:27:33.113Z,6.72
2023-01-29T04:30:11.731Z,6.88
2023-01-29T04:32:48.055Z,5.50
2023-01-29T04:35:17.175Z,6.43
2023-01-29T04:38:06.371Z,5.90
2023-01-29T04:40:43.529Z,7.43
2023-01-29T04:43:20.705Z,8.65
2023-01-29T04:46:13.737Z,6.45
2023-01-29T04:49:06.051Z,8.32
2023-01-29T04:51:37.341Z,12.48
2023-01-29T04:54:25.718Z,18.80
2023-01-29T04:56:58.881Z,20.52
2023-01-29T04:59:32.656Z,18.42
2023-01-29T05:02:02.298Z,19.30
2023-01-29T05:04:33.540Z,23.95
2023-01-29T05:07:06.637Z,20.75
2023-01-29T05:09:34.765Z,18.58
2023-01-29T05:12:03.057Z,18.30
2023-01-29T05:14:32.979Z,18.08
2023-01-29T05:17:05.770Z,20.05
2023-01-29T05:19:32.236Z,18.10
2023-01-29T05:21:59.365Z,20.15
2023-01-29T05:24:26.714Z,20.02
2023-01-29T05:27:13.060Z,23.35
2023-01-29T05:29:46.054Z,19.65
2023-01-29T05:32:12.880Z,19.80
2023-01-29T05:34:39.437Z,21.52
2023-01-29T05:37:05.904Z,21.05
2023-01-29T05:39:32.809Z,16.92
2023-01-29T05:41:59.294Z,17.63
2023-01-29T05:44:25.855Z,18.10
2023-01-29T05:46:52.335Z,21.30
2023-01-29T05:49:20.469Z,17.73
2023-01-29T05:51:46.884Z,14.85
2023-01-29T05:54:13.873Z,13.75
2023-01-29T05:56:40.453Z,14.07
2023-01-29T05:59:07.377Z,14.43
2023-01-29T06:01:33.867Z,12.15
2023-01-29T06:04:00.382Z,12.20
2023-01-29T06:06:26.885Z,12.80
2023-01-29T06:08:53.319Z,14.40
2023-01-29T06:11:20.589Z,14.65
2023-01-29T06:13:47.878Z,11.48
2023-01-29T06:16:14.960Z,16.60
2023-01-29T06:18:42.386Z,13.60
2023-01-29T06:21:11.674Z,10.90
2023-01-29T06:23:38.252Z,15.13
2023-01-29T06:26:07.501Z,11.73
2023-01-29T06:28:34.400Z,11.77
2023-01-29T06:31:22.052Z,14.05
2023-01-29T06:33:51.991Z,11.30
2023-01-29T06:36:18.496Z,14.80
2023-01-29T06:38:44.884Z,10.57
2023-01-29T06:41:19.471Z,12.50
2023-01-29T06:46:12.528Z,15.60
2023-01-29T06:48:39.253Z,14.95
2023-01-29T06:51:08.032Z,15.02
2023-01-29T06:53:36.567Z,14.90
2023-01-29T06:56:03.871Z,13.68
2023-01-29T06:58:30.512Z,13.93
2023-01-29T07:01:08.045Z,15.40
2023-01-29T07:03:35.005Z,10.73
2023-01-29T07:06:01.578Z,9.98
2023-01-29T07:08:28.497Z,11.20
2023-01-29T07:11:04.662Z,13.20
2023-01-29T07:13:31.054Z,10.55
2023-01-29T07:16:01.841Z,12.73
2023-01-29T07:18:29.781Z,11.93
2023-01-29T07:20:56.816Z,10.43
2023-01-29T07:23:23.816Z,12.15
2023-01-29T07:25:51.043Z,11.18
2023-01-29T07:28:18.676Z,9.68
2023-01-29T07:30:45.088Z,12.07
2023-01-29T07:33:11.811Z,9.80
2023-01-29T07:35:40.440Z,12.27
2023-01-29T07:38:08.092Z,10.95
2023-01-29T07:40:34.541Z,12.35
2023-01-29T07:43:03.151Z,11.10
2023-01-29T07:45:30.542Z,11.75
2023-01-29T07:47:57.536Z,10.57
2023-01-29T07:50:25.359Z,10.75
2023-01-29T07:52:53.812Z,10.88
2023-01-29T07:55:20.690Z,13.75
2023-01-29T07:57:48.095Z,10.43
2023-01-29T08:00:15.438Z,10.43
2023-01-29T08:02:42.151Z,10.48
2023-01-29T08:05:09.044Z,7.85
2023-01-29T08:07:35.468Z,9.95
2023-01-29T08:10:01.895Z,11.20
2023-01-29T08:12:28.385Z,10.20
2023-01-29T08:14:54.834Z,9.57
2023-01-29T08:17:21.262Z,9.52
2023-01-29T08:19:47.728Z,8.55
2023-01-29T08:22:16.431Z,7.13
2023-01-29T08:24:54.171Z,12.23
2023-01-29T08:27:26.677Z,6.97
2023-01-29T08:29:53.124Z,6.55
2023-01-29T08:32:19.538Z,5.78
2023-01-29T08:34:45.980Z,8.57
2023-01-29T08:37:12.410Z,7.88
2023-01-29T08:39:38.854Z,7.63
2023-01-29T08:42:05.367Z,8.20
2023-01-29T08:44:31.768Z,7.10
2023-01-29T08:46:58.270Z,9.23
2023-01-29T08:49:24.864Z,5.63
2023-01-29T08:51:54.690Z,9.70
2023-01-29T08:54:21.086Z,7.82
2023-01-29T08:56:47.544Z,6.97
2023-01-29T08:59:14.234Z,9.55
2023-01-29T09:01:40.654Z,7.72
2023-01-29T09:04:07.431Z,8.20
2023-01-29T09:06:34.031Z,9.25
2023-01-29T09:09:00.514Z,11.80
2023-01-29T09:11:26.934Z,12.75
2023-01-29T09:13:53.402Z,10.75
2023-01-29T09:16:19.889Z,13.85
2023-01-29T09:18:46.412Z,11.63
2023-01-29T09:21:12.929Z,14.32
2023-01-29T09:23:39.447Z,17.50
2023-01-29T09:26:08.042Z,14.07
2023-01-29T09:28:34.722Z,11.45
2023-01-29T09:31:02.911Z,11.48
2023-01-29T09:33:30.899Z,14.23
2023-01-29T09:35:57.342Z,12.30
2023-01-29T09:38:23.718Z,14.07
2023-01-29T09:41:17.591Z,13.20
2023-01-29T09:43:55.157Z,11.63
2023-01-29T09:46:39.913Z,11.50
2023-01-29T09:49:21.281Z,11.57
2023-01-29T09:51:58.355Z,10.63
2023-01-29T09:54:30.857Z,11.57
2023-01-29T09:56:58.107Z,10.63
2023-01-29T09:59:27.544Z,11.60
2023-01-29T10:02:19.318Z,10.27
2023-01-29T10:05:07.375Z,7.47
2023-01-29T10:07:56.451Z,9.52
2023-01-29T10:10:27.028Z,8.02
2023-01-29T10:13:25.869Z,10.07
2023-01-29T10:16:21.886Z,7.90
2023-01-29T10:19:16.893Z,12.02
2023-01-29T10:22:12.863Z,7.90
2023-01-29T10:24:53.014Z,10.10
2023-01-29T10:27:20.137Z,8.35
2023-01-29T10:29:51.045Z,9.30
2023-01-29T10:32:25.169Z,10.65
2023-01-29T10:34:56.724Z,10.27
2023-01-29T10:37:28.564Z,10.45
2023-01-29T10:39:54.963Z,11.30
2023-01-29T10:42:30.085Z,10.93
2023-01-29T10:45:20.172Z,11.45
2023-01-29T10:48:04.333Z,10.95
2023-01-29T10:50:52.486Z,8.07
2023-01-29T10:53:37.586Z,10.90
2023-01-29T10:56:23.668Z,8.48
2023-01-29T10:59:05.408Z,12.85
2023-01-29T11:01:31.893Z,10.60
2023-01-29T11:04:03.507Z,8.98
2023-01-29T11:06:35.381Z,14.60
2023-01-29T11:09:13.833Z,16.60
2023-01-29T11:11:49.578Z,13.07
2023-01-29T11:14:26.761Z,15.77
2023-01-29T11:16:53.359Z,12.40
2023-01-29T11:19:37.811Z,9.93
2023-01-29T11:22:04.420Z,11.30
2023-01-29T11:24:30.950Z,15.88
2023-01-29T11:26:59.842Z,13.73
2023-01-29T11:29:38.283Z,15.32
2023-01-29T11:32:08.539Z,16.35
2023-01-29T11:34:35.232Z,14.75
2023-01-29T11:37:04.516Z,11.43
2023-01-29T11:39:32.227Z,15.45
2023-01-29T11:42:01.379Z,15.43
2023-01-29T11:44:38.452Z,14.02
2023-01-29T11:47:25.601Z,13.93
2023-01-29T11:49:57.983Z,12.88
2023-01-29T11:52:37.146Z,9.88
2023-01-29T11:55:16.599Z,14.57
2023-01-29T11:57:48.456Z,9.20
2023-01-29T12:00:24.117Z,12.25
2023-01-29T12:03:03.026Z,11.70
2023-01-29T12:05:29.552Z,15.70
2023-01-29T12:08:02.224Z,15.02
2023-01-29T12:10:39.464Z,10.70
2023-01-29T12:13:20.075Z,10.43
2023-01-29T12:15:48.498Z,7.88
2023-01-29T12:18:30.224Z,9.00
2023-01-29T12:21:10.263Z,8.82
2023-01-29T12:23:41.879Z,7.50
2023-01-29T12:26:19.422Z,9.27
2023-01-29T12:29:06.005Z,10.45
2023-01-29T12:31:46.849Z,12.10
2023-01-29T12:34:24.716Z,8.18
2023-01-29T12:37:13.739Z,11.23
2023-01-29T12:39:40.244Z,10.43
2023-01-29T12:42:17.917Z,11.25
2023-01-29T12:44:52.749Z,11.88
2023-01-29T12:47:33.610Z,12.13
2023-01-29T12:50:08.149Z,12.45
2023-01-29T12:55:15.306Z,11.23
2023-01-29T12:57:48.624Z,15.00
2023-01-29T13:00:20.433Z,10.48
2023-01-29T13:03:21.057Z,17.48
2023-01-29T13:05:51.915Z,18.02
2023-01-29T13:08:23.402Z,22.52
2023-01-29T13:10:52.844Z,23.10
2023-01-29T13:13:54.060Z,24.63
2023-01-29T13:16:25.750Z,21.42
2023-01-29T13:18:59.252Z,26.45
2023-01-29T13:21:30.535Z,19.02
2023-01-29T13:24:02.244Z,21.33
2023-01-29T13:26:28.986Z,28.30
2023-01-29T13:28:55.483Z,27.63
2023-01-29T13:31:27.739Z,20.02
2023-01-29T13:34:22.976Z,18.42
2023-01-29T13:36:55.880Z,12.93
2023-01-29T13:39:28.773Z,17.98
2023-01-29T13:41:56.991Z,14.82
2023-01-29T13:44:29.548Z,21.42
2023-01-29T13:46:57.813Z,17.02
2023-01-29T13:49:35.021Z,18.10
2023-01-29T13:52:26.001Z,16.60
2023-01-29T13:55:17.974Z,16.83
2023-01-29T13:57:44.657Z,17.33
2023-01-29T14:00:24.979Z,16.02
2023-01-29T14:03:00.323Z,19.05
2023-01-29T14:05:29.800Z,18.15
2023-01-29T14:08:05.888Z,18.70
2023-01-29T14:10:37.574Z,13.70
2023-01-29T14:13:03.916Z,18.45
2023-01-29T14:15:35.750Z,16.25
2023-01-29T14:18:08.215Z,23.58
2023-01-29T14:20:48.732Z,23.63
2023-01-29T14:23:36.196Z,20.40
2023-01-29T14:26:18.519Z,13.57
2023-01-29T14:29:18.825Z,15.20
2023-01-29T14:31:57.875Z,17.65
2023-01-29T14:34:31.401Z,12.73
2023-01-29T14:39:41.570Z,15.68
2023-01-29T14:42:56.631Z,9.52
2023-01-29T14:45:29.475Z,15.73
2023-01-29T14:47:57.381Z,12.45
2023-01-29T14:50:31.640Z,12.05
2023-01-29T14:53:23.172Z,14.52
2023-01-29T14:56:11.034Z,14.90
2023-01-29T14:58:42.367Z,14.20
2023-01-29T15:01:23.311Z,20.10
2023-01-29T15:03:57.672Z,12.85
2023-01-29T15:06:34.047Z,16.60
2023-01-29T15:09:09.756Z,13.68
2023-01-29T15:11:47.188Z,15.63
2023-01-29T15:14:24.004Z,19.58
2023-01-29T15:17:09.010Z,14.27
2023-01-29T15:22:16.346Z,17.27
2023-01-29T15:24:44.508Z,18.23
2023-01-29T15:27:20.273Z,14.50
2023-01-29T15:30:01.875Z,15.82
2023-01-29T15:32:35.114Z,19.90
2023-01-29T15:35:08.300Z,21.77
2023-01-29T15:37:36.092Z,17.33
2023-01-29T15:40:06.874Z,16.48
2023-01-29T15:42:46.588Z,14.05
2023-01-29T15:45:32.024Z,22.95
2023-01-29T15:48:05.985Z,19.38
2023-01-29T15:50:36.514Z,26.40
2023-01-29T15:53:07.546Z,11.00
2023-01-29T15:55:35.731Z,19.00
2023-01-29T15:58:02.456Z,16.50
2023-01-29T16:00:30.158Z,14.38
2023-01-29T16:02:58.018Z,20.38
2023-01-29T16:05:28.748Z,15.00
2023-01-29T16:07:56.886Z,16.17
2023-01-29T16:10:29.172Z,16.17
2023-01-29T16:12:56.516Z,10.95
2023-01-29T16:15:40.231Z,16.02
2023-01-29T16:18:36.488Z,11.40
2023-01-29T16:21:15.900Z,16.20
2023-01-29T16:23:55.256Z,14.65
2023-01-29T16:26:34.850Z,10.95
2023-01-29T16:29:10.862Z,17.63
2023-01-29T16:31:38.631Z,13.30
2023-01-29T16:34:27.556Z,9.77
2023-01-29T16:36:55.333Z,17.13
2023-01-29T16:39:34.111Z,12.85
2023-01-29T16:42:10.039Z,11.57
2023-01-29T16:44:39.107Z,10.20
2023-01-29T16:47:23.567Z,14.88
2023-01-29T16:49:53.439Z,13.30
2023-01-29T16:52:33.964Z,15.38
2023-01-29T16:55:15.896Z,11.55
2023-01-29T16:57:47.613Z,12.30
2023-01-29T17:00:22.408Z,11.95
2023-01-29T17:02:52.398Z,16.83
2023-01-29T17:05:38.404Z,15.27
2023-01-29T17:08:06.132Z,15.10
2023-01-29T17:10:33.836Z,18.33
2023-01-29T17:13:05.208Z,16.88
2023-01-29T17:15:43.571Z,14.20
2023-01-29T17:18:20.448Z,17.30
2023-01-29T17:20:47.375Z,17.67
2023-01-29T17:23:14.314Z,17.30
2023-01-29T17:25:41.087Z,14.93
2023-01-29T17:28:07.887Z,12.18
2023-01-29T17:30:37.164Z,12.55
2023-01-29T17:33:17.755Z,16.60
2023-01-29T17:35:45.303Z,15.27
2023-01-29T17:38:25.638Z,15.05
2023-01-29T17:41:00.047Z,13.65
2023-01-29T17:43:26.600Z,14.25
2023-01-29T17:45:53.210Z,15.13
2023-01-29T17:48:23.096Z,16.80
2023-01-29T17:50:53.335Z,11.70
2023-01-29T17:53:21.226Z,14.75
2023-01-29T17:55:47.794Z,14.70
2023-01-29T17:58:23.213Z,12.35
2023-01-29T18:00:50.039Z,13.85
2023-01-29T18:03:17.285Z,16.25
2023-01-29T18:05:45.824Z,17.40
2023-01-29T18:08:33.900Z,16.30
2023-01-29T18:11:00.729Z,17.20
2023-01-29T18:13:27.949Z,19.75
2023-01-29T18:15:54.563Z,17.90
2023-01-29T18:18:23.560Z,14.38
2023-01-29T18:20:50.807Z,13.18
2023-01-29T18:23:17.288Z,17.73
2023-01-29T18:25:44.749Z,11.95
2023-01-29T18:28:19.277Z,17.80
2023-01-29T18:33:15.324Z,16.70
2023-01-29T18:35:44.099Z,16.80
2023-01-29T18:38:10.636Z,20.27
2023-01-29T18:40:37.263Z,14.88
2023-01-29T18:43:04.256Z,21.67
2023-01-29T18:45:31.194Z,12.77
2023-01-29T18:47:57.728Z,9.77
2023-01-29T18:50:26.119Z,17.67
2023-01-29T18:52:53.989Z,15.02
2023-01-29T18:55:20.907Z,13.13
2023-01-29T18:58:28.876Z,20.05
2023-01-29T19:00:33.701Z,18.45
2023-01-29T19:03:00.708Z,19.60
2023-01-29T19:05:27.190Z,16.25
2023-01-29T19:07:53.697Z,15.13
2023-01-29T19:10:20.099Z,18.85
2023-01-29T19:12:46.574Z,19.90
2023-01-29T19:15:12.987Z,16.30
2023-01-29T19:17:39.432Z,19.90
2023-01-29T19:20:06.505Z,11.07
2023-01-29T19:22:33.107Z,14.73
2023-01-29T19:24:59.548Z,18.02
2023-01-29T19:27:30.204Z,18.48
2023-01-29T19:29:58.123Z,15.57
2023-01-29T19:32:24.600Z,22.33
2023-01-29T19:34:51.498Z,18.42
2023-01-29T19:37:17.876Z,15.35
2023-01-29T19:39:44.243Z,17.10
2023-01-29T19:42:10.756Z,17.70
2023-01-29T19:44:38.910Z,20.60
2023-01-29T19:47:05.813Z,11.13
2023-01-29T19:49:33.987Z,18.98
2023-01-29T19:52:01.727Z,12.50
2023-01-29T19:54:29.545Z,14.82
2023-01-29T19:56:56.643Z,12.88
2023-01-29T19:59:23.079Z,16.67
2023-01-29T20:01:49.540Z,19.02
2023-01-29T20:04:15.993Z,19.08
2023-01-29T20:06:42.549Z,14.90
2023-01-29T20:09:09.012Z,16.45
2023-01-29T20:11:35.449Z,22.65
2023-01-29T20:14:01.949Z,17.27
2023-01-29T20:16:28.432Z,21.30
2023-01-29T20:18:54.911Z,13.10
2023-01-29T20:21:40.926Z,15.90
2023-01-29T20:24:12.092Z,21.92
2023-01-29T20:26:39.089Z,11.60
2023-01-29T20:29:06.414Z,18.33
2023-01-29T20:31:33.527Z,10.68
2023-01-29T20:34:00.005Z,15.20
2023-01-29T20:36:26.393Z,14.88
2023-01-29T20:38:52.850Z,16.38
2023-01-29T20:41:19.911Z,12.23
2023-01-29T20:43:47.274Z,14.35
2023-01-29T20:46:14.025Z,15.40
2023-01-29T20:48:42.087Z,14.50
2023-01-29T20:51:15.667Z,16.13
2023-01-29T20:53:45.107Z,12.63
2023-01-29T20:56:13.310Z,17.60
2023-01-29T20:58:41.039Z,17.70
2023-01-29T21:01:12.194Z,21.13
2023-01-29T21:03:39.660Z,17.88
2023-01-29T21:06:07.188Z,19.15
2023-01-29T21:08:35.261Z,19.08
2023-01-29T21:11:06.709Z,17.52
2023-01-29T21:13:33.431Z,14.50
2023-01-29T21:16:00.375Z,16.73
2023-01-29T21:18:26.856Z,12.98
2023-01-29T21:20:54.252Z,16.38
2023-01-29T21:23:21.664Z,14.80
2023-01-29T21:25:48.108Z,22.15
2023-01-29T21:28:15.506Z,15.73
2023-01-29T21:30:41.955Z,20.27
2023-01-29T21:33:08.352Z,20.48
2023-01-29T21:35:36.940Z,17.85
2023-01-29T21:38:03.935Z,13.50
2023-01-29T21:40:30.513Z,15.27
2023-01-29T21:43:17.257Z,16.45
2023-01-29T21:45:44.140Z,14.73
2023-01-29T21:48:11.826Z,16.63
2023-01-29T21:50:38.616Z,12.38
2023-01-29T21:53:05.111Z,12.10
2023-01-29T21:55:32.507Z,14.20
2023-01-29T21:58:00.145Z,12.18
2023-01-29T22:00:26.593Z,18.17
2023-01-29T22:02:53.424Z,17.45
2023-01-29T22:05:20.527Z,13.68
2023-01-29T22:07:48.416Z,13.40
2023-01-29T22:10:17.191Z,14.20
2023-01-29T22:12:44.681Z,11.48
2023-01-29T22:15:12.276Z,9.73
2023-01-29T22:17:41.267Z,10.18
2023-01-29T22:20:12.504Z,13.75
2023-01-29T22:22:39.175Z,14.02
2023-01-29T22:25:06.044Z,11.23
2023-01-29T22:27:33.770Z,13.15
2023-01-29T22:30:00.338Z,13.85
2023-01-29T22:32:26.820Z,12.45
2023-01-29T22:34:53.404Z,12.35
2023-01-29T22:37:19.822Z,12.60
2023-01-29T22:39:46.234Z,9.65
2023-01-29T22:42:12.629Z,16.55
2023-01-29T22:44:39.084Z,11.55
2023-01-29T22:47:05.492Z,15.80
2023-01-29T22:49:32.162Z,13.57
2023-01-29T22:52:09.986Z,15.10
2023-01-29T22:54:41.029Z,12.07
2023-01-29T22:57:10.276Z,10.18
2023-01-29T22:59:36.849Z,12.18
2023-01-29T23:02:03.946Z,9.77
2023-01-29T23:04:30.556Z,10.48
2023-01-29T23:06:57.078Z,18.83
2023-01-29T23:09:23.649Z,10.70
2023-01-29T23:11:50.238Z,11.68
2023-01-29T23:14:16.699Z,13.80
2023-01-29T23:16:43.179Z,14.20
2023-01-29T23:19:10.993Z,13.75
2023-01-29T23:21:37.967Z,11.07
2023-01-29T23:24:05.830Z,18.98
2023-01-29T23:26:50.727Z,11.85
2023-01-29T23:31:43.636Z,11.23
2023-01-29T23:34:10.140Z,14.15
2023-01-29T23:36:36.560Z,14.07
2023-01-29T23:39:03.007Z,12.90
2023-01-29T23:41:29.439Z,14.40
2023-01-29T23:43:55.968Z,14.05
2023-01-29T23:46:22.818Z,11.27
2023-01-29T23:48:49.222Z,17.55
2023-01-29T23:51:15.676Z,10.55
2023-01-29T23:53:42.296Z,11.20
2023-01-29T23:56:10.537Z,6.25
2023-01-29T23:58:36.980Z,8.02
